sensor_id;sensor_type;location;lat;lon;timestamp;temperature;humidity
4910;DHT22;2470;49.868;8.660;2022-08-18T00:01:16;23.30;95.70
4910;DHT22;2470;49.868;8.660;2022-08-18T00:03:43;23.30;95.80
4910;DHT22;2470;49.868;8.660;2022-08-18T00:06:09;23.30;95.80
4910;DHT22;2470;49.868;8.660;2022-08-18T00:08:34;23.30;96.10
4910;DHT22;2470;49.868;8.660;2022-08-18T00:11:00;23.30;96.30
4910;DHT22;2470;49.868;8.660;2022-08-18T00:13:26;23.20;96.30
4910;DHT22;2470;49.868;8.660;2022-08-18T00:15:51;23.20;96.40
4910;DHT22;2470;49.868;8.660;2022-08-18T00:18:17;23.20;95.80
4910;DHT22;2470;49.868;8.660;2022-08-18T00:20:43;23.10;94.40
4910;DHT22;2470;49.868;8.660;2022-08-18T00:23:09;23.00;94.30
4910;DHT22;2470;49.868;8.660;2022-08-18T00:25:34;23.00;94.10
4910;DHT22;2470;49.868;8.660;2022-08-18T00:28:00;23.00;93.90
4910;DHT22;2470;49.868;8.660;2022-08-18T00:30:26;23.00;93.60
4910;DHT22;2470;49.868;8.660;2022-08-18T00:32:54;23.10;93.60
4910;DHT22;2470;49.868;8.660;2022-08-18T00:35:31;23.10;93.50
4910;DHT22;2470;49.868;8.660;2022-08-18T00:37:59;23.10;93.40
4910;DHT22;2470;49.868;8.660;2022-08-18T00:40:37;23.10;93.30
4910;DHT22;2470;49.868;8.660;2022-08-18T00:43:06;23.00;93.60
4910;DHT22;2470;49.868;8.660;2022-08-18T00:45:38;23.00;93.30
4910;DHT22;2470;49.868;8.660;2022-08-18T00:48:06;23.10;93.50
4910;DHT22;2470;49.868;8.660;2022-08-18T00:50:36;23.10;93.60
4910;DHT22;2470;49.868;8.660;2022-08-18T00:53:18;23.10;93.70
4910;DHT22;2470;49.868;8.660;2022-08-18T00:55:46;23.10;94.00
4910;DHT22;2470;49.868;8.660;2022-08-18T00:58:19;23.10;94.30
4910;DHT22;2470;49.868;8.660;2022-08-18T01:00:48;23.10;94.40
4910;DHT22;2470;49.868;8.660;2022-08-18T01:03:16;23.00;94.60
4910;DHT22;2470;49.868;8.660;2022-08-18T01:06:16;23.10;94.70
4910;DHT22;2470;49.868;8.660;2022-08-18T01:08:45;23.10;95.00
4910;DHT22;2470;49.868;8.660;2022-08-18T01:11:11;23.20;95.10
4910;DHT22;2470;49.868;8.660;2022-08-18T01:13:39;23.20;95.40
4910;DHT22;2470;49.868;8.660;2022-08-18T01:16:06;23.20;95.60
4910;DHT22;2470;49.868;8.660;2022-08-18T01:18:50;23.20;95.90
4910;DHT22;2470;49.868;8.660;2022-08-18T01:21:40;23.30;96.20
4910;DHT22;2470;49.868;8.660;2022-08-18T01:24:19;23.30;96.50
4910;DHT22;2470;49.868;8.660;2022-08-18T01:26:46;23.30;97.00
4910;DHT22;2470;49.868;8.660;2022-08-18T01:29:16;23.20;97.10
4910;DHT22;2470;49.868;8.660;2022-08-18T01:31:51;23.20;97.40
4910;DHT22;2470;49.868;8.660;2022-08-18T01:34:21;23.20;97.90
4910;DHT22;2470;49.868;8.660;2022-08-18T01:36:49;23.30;97.80
4910;DHT22;2470;49.868;8.660;2022-08-18T01:39:17;23.20;98.00
4910;DHT22;2470;49.868;8.660;2022-08-18T01:41:43;23.20;98.30
4910;DHT22;2470;49.868;8.660;2022-08-18T01:44:09;23.20;98.40
4910;DHT22;2470;49.868;8.660;2022-08-18T01:46:37;23.20;98.70
4910;DHT22;2470;49.868;8.660;2022-08-18T01:49:04;23.20;98.90
4910;DHT22;2470;49.868;8.660;2022-08-18T01:51:31;23.10;99.10
4910;DHT22;2470;49.868;8.660;2022-08-18T01:53:57;23.10;99.50
4910;DHT22;2470;49.868;8.660;2022-08-18T01:56:24;23.10;99.60
4910;DHT22;2470;49.868;8.660;2022-08-18T01:58:52;23.10;99.70
4910;DHT22;2470;49.868;8.660;2022-08-18T02:01:18;23.10;99.90
4910;DHT22;2470;49.868;8.660;2022-08-18T02:03:50;23.10;99.90
4910;DHT22;2470;49.868;8.660;2022-08-18T02:06:18;23.00;99.90
4910;DHT22;2470;49.868;8.660;2022-08-18T02:08:45;23.00;99.90
4910;DHT22;2470;49.868;8.660;2022-08-18T02:11:11;23.00;99.90
4910;DHT22;2470;49.868;8.660;2022-08-18T02:13:37;23.00;99.90
4910;DHT22;2470;49.868;8.660;2022-08-18T02:16:03;23.00;99.90
4910;DHT22;2470;49.868;8.660;2022-08-18T02:18:32;23.00;99.90
4910;DHT22;2470;49.868;8.660;2022-08-18T02:21:08;23.00;99.90
4910;DHT22;2470;49.868;8.660;2022-08-18T02:23:34;23.00;99.90
4910;DHT22;2470;49.868;8.660;2022-08-18T02:26:06;23.00;99.90
4910;DHT22;2470;49.868;8.660;2022-08-18T02:28:33;23.00;99.90
4910;DHT22;2470;49.868;8.660;2022-08-18T02:31:07;23.00;99.90
4910;DHT22;2470;49.868;8.660;2022-08-18T02:33:33;23.00;99.90
4910;DHT22;2470;49.868;8.660;2022-08-18T02:35:59;22.90;99.90
4910;DHT22;2470;49.868;8.660;2022-08-18T02:38:25;22.90;99.90
4910;DHT22;2470;49.868;8.660;2022-08-18T02:40:58;22.80;99.90
4910;DHT22;2470;49.868;8.660;2022-08-18T02:43:25;22.70;99.90
4910;DHT22;2470;49.868;8.660;2022-08-18T02:45:51;22.70;99.90
4910;DHT22;2470;49.868;8.660;2022-08-18T02:48:17;22.70;99.90
4910;DHT22;2470;49.868;8.660;2022-08-18T02:53:29;22.70;99.90
4910;DHT22;2470;49.868;8.660;2022-08-18T02:56:04;22.60;99.90
4910;DHT22;2470;49.868;8.660;2022-08-18T02:58:39;22.60;99.90
4910;DHT22;2470;49.868;8.660;2022-08-18T03:01:05;22.60;99.90
4910;DHT22;2470;49.868;8.660;2022-08-18T03:03:30;22.60;99.90
4910;DHT22;2470;49.868;8.660;2022-08-18T03:05:56;22.50;99.90
4910;DHT22;2470;49.868;8.660;2022-08-18T03:08:22;22.50;99.90
4910;DHT22;2470;49.868;8.660;2022-08-18T03:10:50;22.60;99.90
4910;DHT22;2470;49.868;8.660;2022-08-18T03:13:16;22.60;99.90
4910;DHT22;2470;49.868;8.660;2022-08-18T03:15:41;22.60;99.90
4910;DHT22;2470;49.868;8.660;2022-08-18T03:18:09;22.60;99.90
4910;DHT22;2470;49.868;8.660;2022-08-18T03:20:36;22.60;99.90
4910;DHT22;2470;49.868;8.660;2022-08-18T03:23:03;22.70;99.90
4910;DHT22;2470;49.868;8.660;2022-08-18T03:25:28;22.70;99.90
4910;DHT22;2470;49.868;8.660;2022-08-18T03:27:54;22.60;99.90
4910;DHT22;2470;49.868;8.660;2022-08-18T03:30:20;22.60;99.90
4910;DHT22;2470;49.868;8.660;2022-08-18T03:32:45;22.50;99.90
4910;DHT22;2470;49.868;8.660;2022-08-18T03:35:11;22.50;99.90
4910;DHT22;2470;49.868;8.660;2022-08-18T03:37:39;22.40;99.90
4910;DHT22;2470;49.868;8.660;2022-08-18T03:40:05;22.40;99.90
4910;DHT22;2470;49.868;8.660;2022-08-18T03:42:31;22.30;99.90
4910;DHT22;2470;49.868;8.660;2022-08-18T03:44:56;22.30;99.90
4910;DHT22;2470;49.868;8.660;2022-08-18T03:47:22;22.30;99.90
4910;DHT22;2470;49.868;8.660;2022-08-18T03:49:48;22.40;99.90
4910;DHT22;2470;49.868;8.660;2022-08-18T03:52:13;22.40;99.90
4910;DHT22;2470;49.868;8.660;2022-08-18T03:54:40;22.50;99.90
4910;DHT22;2470;49.868;8.660;2022-08-18T03:57:10;22.50;99.90
4910;DHT22;2470;49.868;8.660;2022-08-18T03:59:36;22.50;99.90
4910;DHT22;2470;49.868;8.660;2022-08-18T04:02:03;22.50;99.90
4910;DHT22;2470;49.868;8.660;2022-08-18T04:04:29;22.50;99.90
4910;DHT22;2470;49.868;8.660;2022-08-18T04:06:57;22.50;99.90
4910;DHT22;2470;49.868;8.660;2022-08-18T04:09:25;22.50;99.90
4910;DHT22;2470;49.868;8.660;2022-08-18T04:11:52;22.60;99.90
4910;DHT22;2470;49.868;8.660;2022-08-18T04:14:20;22.50;99.90
4910;DHT22;2470;49.868;8.660;2022-08-18T04:16:46;22.50;99.90
4910;DHT22;2470;49.868;8.660;2022-08-18T04:19:13;22.50;99.90
4910;DHT22;2470;49.868;8.660;2022-08-18T04:21:43;22.50;99.90
4910;DHT22;2470;49.868;8.660;2022-08-18T04:24:11;22.50;99.90
4910;DHT22;2470;49.868;8.660;2022-08-18T04:26:40;22.60;99.90
4910;DHT22;2470;49.868;8.660;2022-08-18T04:29:09;22.50;99.90
4910;DHT22;2470;49.868;8.660;2022-08-18T04:31:35;22.50;99.90
4910;DHT22;2470;49.868;8.660;2022-08-18T04:34:01;22.40;99.90
4910;DHT22;2470;49.868;8.660;2022-08-18T04:36:28;22.40;99.90
4910;DHT22;2470;49.868;8.660;2022-08-18T04:38:55;22.40;99.90
4910;DHT22;2470;49.868;8.660;2022-08-18T04:41:21;22.40;99.90
4910;DHT22;2470;49.868;8.660;2022-08-18T04:43:58;22.40;99.90
4910;DHT22;2470;49.868;8.660;2022-08-18T04:46:25;22.30;99.90
4910;DHT22;2470;49.868;8.660;2022-08-18T04:48:52;22.30;99.90
4910;DHT22;2470;49.868;8.660;2022-08-18T04:51:20;22.30;99.90
4910;DHT22;2470;49.868;8.660;2022-08-18T04:53:46;22.20;99.90
4910;DHT22;2470;49.868;8.660;2022-08-18T04:56:24;22.20;99.90
4910;DHT22;2470;49.868;8.660;2022-08-18T04:58:53;22.30;99.90
4910;DHT22;2470;49.868;8.660;2022-08-18T05:01:21;22.30;99.90
4910;DHT22;2470;49.868;8.660;2022-08-18T05:03:51;22.40;99.90
4910;DHT22;2470;49.868;8.660;2022-08-18T05:06:18;22.40;99.90
4910;DHT22;2470;49.868;8.660;2022-08-18T05:08:44;22.40;99.90
4910;DHT22;2470;49.868;8.660;2022-08-18T05:11:13;22.40;99.90
4910;DHT22;2470;49.868;8.660;2022-08-18T05:13:39;22.40;99.90
4910;DHT22;2470;49.868;8.660;2022-08-18T05:16:05;22.50;99.90
4910;DHT22;2470;49.868;8.660;2022-08-18T05:18:32;22.50;99.90
4910;DHT22;2470;49.868;8.660;2022-08-18T05:20:58;22.40;99.90
4910;DHT22;2470;49.868;8.660;2022-08-18T05:23:25;22.40;99.90
4910;DHT22;2470;49.868;8.660;2022-08-18T05:25:56;22.40;99.90
4910;DHT22;2470;49.868;8.660;2022-08-18T05:28:22;22.40;99.90
4910;DHT22;2470;49.868;8.660;2022-08-18T05:30:48;22.50;99.90
4910;DHT22;2470;49.868;8.660;2022-08-18T05:33:13;22.60;99.90
4910;DHT22;2470;49.868;8.660;2022-08-18T05:35:48;22.50;99.90
4910;DHT22;2470;49.868;8.660;2022-08-18T05:38:52;22.50;99.90
4910;DHT22;2470;49.868;8.660;2022-08-18T05:41:28;22.50;99.90
4910;DHT22;2470;49.868;8.660;2022-08-18T05:43:57;22.50;99.90
4910;DHT22;2470;49.868;8.660;2022-08-18T05:46:51;22.50;99.90
4910;DHT22;2470;49.868;8.660;2022-08-18T05:49:17;22.60;99.90
4910;DHT22;2470;49.868;8.660;2022-08-18T05:51:49;22.50;99.90
4910;DHT22;2470;49.868;8.660;2022-08-18T05:54:16;22.50;99.90
4910;DHT22;2470;49.868;8.660;2022-08-18T05:57:07;22.50;99.90
4910;DHT22;2470;49.868;8.660;2022-08-18T05:59:38;22.50;99.90
4910;DHT22;2470;49.868;8.660;2022-08-18T06:04:57;22.60;99.90
4910;DHT22;2470;49.868;8.660;2022-08-18T06:07:56;22.60;99.90
4910;DHT22;2470;49.868;8.660;2022-08-18T06:10:22;22.60;99.90
4910;DHT22;2470;49.868;8.660;2022-08-18T06:12:51;22.60;99.90
4910;DHT22;2470;49.868;8.660;2022-08-18T06:18:22;22.70;99.90
4910;DHT22;2470;49.868;8.660;2022-08-18T06:23:45;22.50;99.90
4910;DHT22;2470;49.868;8.660;2022-08-18T06:26:24;22.40;99.90
4910;DHT22;2470;49.868;8.660;2022-08-18T06:39:59;22.20;99.90
4910;DHT22;2470;49.868;8.660;2022-08-18T06:42:27;22.20;99.90
4910;DHT22;2470;49.868;8.660;2022-08-18T06:45:09;22.20;99.90
4910;DHT22;2470;49.868;8.660;2022-08-18T06:47:48;22.20;99.90
4910;DHT22;2470;49.868;8.660;2022-08-18T06:50:32;22.30;99.90
4910;DHT22;2470;49.868;8.660;2022-08-18T06:53:04;22.30;99.90
4910;DHT22;2470;49.868;8.660;2022-08-18T06:55:45;22.30;99.90
4910;DHT22;2470;49.868;8.660;2022-08-18T07:03:21;22.30;99.90
4910;DHT22;2470;49.868;8.660;2022-08-18T07:06:07;22.40;99.90
4910;DHT22;2470;49.868;8.660;2022-08-18T07:08:40;22.30;99.90
4910;DHT22;2470;49.868;8.660;2022-08-18T07:11:31;22.30;99.90
4910;DHT22;2470;49.868;8.660;2022-08-18T07:14:19;22.30;99.90
4910;DHT22;2470;49.868;8.660;2022-08-18T07:16:45;22.30;99.90
4910;DHT22;2470;49.868;8.660;2022-08-18T07:19:29;22.40;99.90
4910;DHT22;2470;49.868;8.660;2022-08-18T07:22:09;22.40;99.90
4910;DHT22;2470;49.868;8.660;2022-08-18T07:24:43;22.50;99.90
4910;DHT22;2470;49.868;8.660;2022-08-18T07:27:17;22.50;99.90
4910;DHT22;2470;49.868;8.660;2022-08-18T07:35:06;22.50;99.90
4910;DHT22;2470;49.868;8.660;2022-08-18T07:37:48;22.40;99.90
4910;DHT22;2470;49.868;8.660;2022-08-18T07:40:37;22.50;99.90
4910;DHT22;2470;49.868;8.660;2022-08-18T07:43:09;22.40;99.90
4910;DHT22;2470;49.868;8.660;2022-08-18T07:45:40;22.30;99.90
4910;DHT22;2470;49.868;8.660;2022-08-18T07:53:36;22.00;99.90
4910;DHT22;2470;49.868;8.660;2022-08-18T07:58:55;21.80;99.90
4910;DHT22;2470;49.868;8.660;2022-08-18T08:02:04;21.70;99.90
4910;DHT22;2470;49.868;8.660;2022-08-18T08:04:42;21.70;99.90
4910;DHT22;2470;49.868;8.660;2022-08-18T08:07:24;21.80;99.90
4910;DHT22;2470;49.868;8.660;2022-08-18T08:12:57;21.90;99.90
4910;DHT22;2470;49.868;8.660;2022-08-18T08:18:14;22.10;99.90
4910;DHT22;2470;49.868;8.660;2022-08-18T08:20:50;22.10;99.90
4910;DHT22;2470;49.868;8.660;2022-08-18T08:26:26;22.10;99.90
4910;DHT22;2470;49.868;8.660;2022-08-18T08:29:21;22.10;99.90
4910;DHT22;2470;49.868;8.660;2022-08-18T08:36:59;22.30;99.90
4910;DHT22;2470;49.868;8.660;2022-08-18T08:42:00;22.40;99.90
4910;DHT22;2470;49.868;8.660;2022-08-18T08:44:44;22.40;99.90
4910;DHT22;2470;49.868;8.660;2022-08-18T08:47:28;22.50;99.90
4910;DHT22;2470;49.868;8.660;2022-08-18T08:50:06;22.60;99.90
4910;DHT22;2470;49.868;8.660;2022-08-18T08:52:49;22.60;99.90
4910;DHT22;2470;49.868;8.660;2022-08-18T08:55:21;22.70;99.90
4910;DHT22;2470;49.868;8.660;2022-08-18T08:58:11;22.70;99.90
4910;DHT22;2470;49.868;8.660;2022-08-18T09:00:41;22.80;99.90
4910;DHT22;2470;49.868;8.660;2022-08-18T09:08:53;23.10;99.90
4910;DHT22;2470;49.868;8.660;2022-08-18T09:28:15;23.70;99.90
4910;DHT22;2470;49.868;8.660;2022-08-18T09:33:27;23.60;99.90
4910;DHT22;2470;49.868;8.660;2022-08-18T09:39:06;23.50;99.90
4910;DHT22;2470;49.868;8.660;2022-08-18T09:41:59;23.40;99.90
4910;DHT22;2470;49.868;8.660;2022-08-18T09:44:57;23.30;99.90
4910;DHT22;2470;49.868;8.660;2022-08-18T09:55:04;23.00;99.90
4910;DHT22;2470;49.868;8.660;2022-08-18T09:57:35;22.90;99.90
4910;DHT22;2470;49.868;8.660;2022-08-18T10:07:47;22.80;99.90
4910;DHT22;2470;49.868;8.660;2022-08-18T10:10:39;22.80;99.90
4910;DHT22;2470;49.868;8.660;2022-08-18T10:13:12;22.80;99.90
4910;DHT22;2470;49.868;8.660;2022-08-18T10:21:22;22.80;99.90
4910;DHT22;2470;49.868;8.660;2022-08-18T10:29:43;22.80;99.90
4910;DHT22;2470;49.868;8.660;2022-08-18T10:39:49;23.10;99.90
4910;DHT22;2470;49.868;8.660;2022-08-18T10:42:32;23.30;99.90
4910;DHT22;2470;49.868;8.660;2022-08-18T10:47:40;23.80;99.90
4910;DHT22;2470;49.868;8.660;2022-08-18T10:50:21;23.90;99.90
4910;DHT22;2470;49.868;8.660;2022-08-18T10:55:39;24.40;99.90
4910;DHT22;2470;49.868;8.660;2022-08-18T11:04:04;24.50;99.90
4910;DHT22;2470;49.868;8.660;2022-08-18T11:06:38;24.50;99.90
4910;DHT22;2470;49.868;8.660;2022-08-18T11:09:06;24.50;99.90
4910;DHT22;2470;49.868;8.660;2022-08-18T11:11:43;24.40;99.90
4910;DHT22;2470;49.868;8.660;2022-08-18T11:17:01;24.40;99.90
4910;DHT22;2470;49.868;8.660;2022-08-18T11:19:36;24.50;99.90
4910;DHT22;2470;49.868;8.660;2022-08-18T11:22:02;24.80;99.90
4910;DHT22;2470;49.868;8.660;2022-08-18T11:24:30;25.20;99.90
4910;DHT22;2470;49.868;8.660;2022-08-18T11:27:03;25.50;99.90
4910;DHT22;2470;49.868;8.660;2022-08-18T11:29:37;25.60;99.90
4910;DHT22;2470;49.868;8.660;2022-08-18T11:32:15;25.60;99.90
4910;DHT22;2470;49.868;8.660;2022-08-18T11:37:50;25.60;99.90
4910;DHT22;2470;49.868;8.660;2022-08-18T11:40:39;25.80;99.90
4910;DHT22;2470;49.868;8.660;2022-08-18T11:51:29;26.00;99.90
4910;DHT22;2470;49.868;8.660;2022-08-18T11:53:39;26.10;99.90
4910;DHT22;2470;49.868;8.660;2022-08-18T12:01:47;26.70;99.90
4910;DHT22;2470;49.868;8.660;2022-08-18T12:04:21;26.80;99.90
4910;DHT22;2470;49.868;8.660;2022-08-18T12:10:32;27.00;99.90
4910;DHT22;2470;49.868;8.660;2022-08-18T12:12:29;27.00;99.90
4910;DHT22;2470;49.868;8.660;2022-08-18T12:17:38;27.10;99.90
4910;DHT22;2470;49.868;8.660;2022-08-18T12:20:04;27.30;99.90
4910;DHT22;2470;49.868;8.660;2022-08-18T12:22:33;27.40;99.90
4910;DHT22;2470;49.868;8.660;2022-08-18T12:25:00;27.50;99.90
4910;DHT22;2470;49.868;8.660;2022-08-18T12:27:27;27.80;99.90
4910;DHT22;2470;49.868;8.660;2022-08-18T12:29:55;27.90;99.90
4910;DHT22;2470;49.868;8.660;2022-08-18T12:32:23;28.00;99.30
4910;DHT22;2470;49.868;8.660;2022-08-18T12:34:49;28.00;99.70
4910;DHT22;2470;49.868;8.660;2022-08-18T12:37:17;28.00;99.70
4910;DHT22;2470;49.868;8.660;2022-08-18T12:39:43;28.00;99.60
4910;DHT22;2470;49.868;8.660;2022-08-18T12:42:09;28.00;98.90
4910;DHT22;2470;49.868;8.660;2022-08-18T12:44:35;28.00;97.90
4910;DHT22;2470;49.868;8.660;2022-08-18T12:47:12;28.00;97.80
4910;DHT22;2470;49.868;8.660;2022-08-18T12:49:38;28.00;97.80
4910;DHT22;2470;49.868;8.660;2022-08-18T12:52:04;28.10;97.80
4910;DHT22;2470;49.868;8.660;2022-08-18T12:54:30;28.60;97.20
4910;DHT22;2470;49.868;8.660;2022-08-18T12:56:57;29.20;96.00
4910;DHT22;2470;49.868;8.660;2022-08-18T12:59:23;30.60;93.60
4910;DHT22;2470;49.868;8.660;2022-08-18T13:01:49;32.50;90.50
4910;DHT22;2470;49.868;8.660;2022-08-18T13:04:15;33.80;82.20
4910;DHT22;2470;49.868;8.660;2022-08-18T13:06:48;34.70;74.20
4910;DHT22;2470;49.868;8.660;2022-08-18T13:09:14;35.20;69.30
4910;DHT22;2470;49.868;8.660;2022-08-18T13:11:40;35.70;68.10
4910;DHT22;2470;49.868;8.660;2022-08-18T13:14:06;37.10;64.20
4910;DHT22;2470;49.868;8.660;2022-08-18T13:16:34;38.70;59.50
4910;DHT22;2470;49.868;8.660;2022-08-18T13:19:00;39.20;55.20
4910;DHT22;2470;49.868;8.660;2022-08-18T13:21:26;38.50;54.70
4910;DHT22;2470;49.868;8.660;2022-08-18T13:23:52;38.70;54.40
4910;DHT22;2470;49.868;8.660;2022-08-18T13:26:27;39.20;52.10
4910;DHT22;2470;49.868;8.660;2022-08-18T13:28:53;39.60;51.70
4910;DHT22;2470;49.868;8.660;2022-08-18T13:31:19;40.00;51.10
4910;DHT22;2470;49.868;8.660;2022-08-18T13:33:45;39.90;50.10
4910;DHT22;2470;49.868;8.660;2022-08-18T13:36:10;39.30;50.30
4910;DHT22;2470;49.868;8.660;2022-08-18T13:38:36;38.90;51.20
4910;DHT22;2470;49.868;8.660;2022-08-18T13:41:03;38.50;50.70
4910;DHT22;2470;49.868;8.660;2022-08-18T13:43:36;39.10;50.00
4910;DHT22;2470;49.868;8.660;2022-08-18T13:46:06;40.00;49.00
4910;DHT22;2470;49.868;8.660;2022-08-18T13:48:32;40.70;47.00
4910;DHT22;2470;49.868;8.660;2022-08-18T13:50:59;40.30;46.60
4910;DHT22;2470;49.868;8.660;2022-08-18T13:53:26;39.80;47.00
4910;DHT22;2470;49.868;8.660;2022-08-18T13:55:53;38.90;47.30
4910;DHT22;2470;49.868;8.660;2022-08-18T13:58:19;39.60;46.70
4910;DHT22;2470;49.868;8.660;2022-08-18T14:00:44;40.50;46.40
4910;DHT22;2470;49.868;8.660;2022-08-18T14:03:11;41.70;45.00
4910;DHT22;2470;49.868;8.660;2022-08-18T14:05:37;42.40;43.70
4910;DHT22;2470;49.868;8.660;2022-08-18T14:08:03;42.80;43.00
4910;DHT22;2470;49.868;8.660;2022-08-18T14:10:29;42.80;42.60
4910;DHT22;2470;49.868;8.660;2022-08-18T14:12:57;43.40;41.60
4910;DHT22;2470;49.868;8.660;2022-08-18T14:15:23;43.90;40.30
4910;DHT22;2470;49.868;8.660;2022-08-18T14:17:49;44.20;40.00
4910;DHT22;2470;49.868;8.660;2022-08-18T14:20:16;44.80;39.50
4910;DHT22;2470;49.868;8.660;2022-08-18T14:23:01;45.30;38.70
4910;DHT22;2470;49.868;8.660;2022-08-18T14:25:45;46.00;38.00
4910;DHT22;2470;49.868;8.660;2022-08-18T14:28:43;45.10;37.60
4910;DHT22;2470;49.868;8.660;2022-08-18T14:31:09;43.30;38.90
4910;DHT22;2470;49.868;8.660;2022-08-18T14:33:36;42.80;39.30
4910;DHT22;2470;49.868;8.660;2022-08-18T14:36:03;42.70;39.00
4910;DHT22;2470;49.868;8.660;2022-08-18T14:38:30;42.60;39.00
4910;DHT22;2470;49.868;8.660;2022-08-18T14:40:57;42.20;39.50
4910;DHT22;2470;49.868;8.660;2022-08-18T14:43:24;42.00;39.70
4910;DHT22;2470;49.868;8.660;2022-08-18T14:45:50;41.60;40.40
4910;DHT22;2470;49.868;8.660;2022-08-18T14:48:18;40.80;40.30
4910;DHT22;2470;49.868;8.660;2022-08-18T14:50:48;40.00;41.70
4910;DHT22;2470;49.868;8.660;2022-08-18T14:53:16;39.50;42.50
4910;DHT22;2470;49.868;8.660;2022-08-18T14:55:44;39.40;42.30
4910;DHT22;2470;49.868;8.660;2022-08-18T14:58:10;38.70;42.70
4910;DHT22;2470;49.868;8.660;2022-08-18T15:00:35;37.70;43.90
4910;DHT22;2470;49.868;8.660;2022-08-18T15:03:01;36.70;45.40
4910;DHT22;2470;49.868;8.660;2022-08-18T15:05:28;35.90;46.60
4910;DHT22;2470;49.868;8.660;2022-08-18T15:07:56;35.40;47.50
4910;DHT22;2470;49.868;8.660;2022-08-18T15:10:23;35.30;47.90
4910;DHT22;2470;49.868;8.660;2022-08-18T15:12:49;35.30;47.30
4910;DHT22;2470;49.868;8.660;2022-08-18T15:15:15;35.00;47.60
4910;DHT22;2470;49.868;8.660;2022-08-18T15:17:40;34.80;48.30
4910;DHT22;2470;49.868;8.660;2022-08-18T15:20:08;34.40;47.50
4910;DHT22;2470;49.868;8.660;2022-08-18T15:22:40;33.50;48.00
4910;DHT22;2470;49.868;8.660;2022-08-18T15:25:24;32.60;50.00
4910;DHT22;2470;49.868;8.660;2022-08-18T15:28:19;31.80;51.00
4910;DHT22;2470;49.868;8.660;2022-08-18T15:30:47;31.40;52.40
4910;DHT22;2470;49.868;8.660;2022-08-18T15:33:13;31.10;53.00
4910;DHT22;2470;49.868;8.660;2022-08-18T15:35:41;31.00;53.10
4910;DHT22;2470;49.868;8.660;2022-08-18T15:38:08;30.80;53.80
4910;DHT22;2470;49.868;8.660;2022-08-18T15:40:37;30.70;53.80
4910;DHT22;2470;49.868;8.660;2022-08-18T15:43:06;30.50;53.20
4910;DHT22;2470;49.868;8.660;2022-08-18T15:45:37;30.40;53.80
4910;DHT22;2470;49.868;8.660;2022-08-18T15:48:04;30.20;54.20
4910;DHT22;2470;49.868;8.660;2022-08-18T15:50:30;30.10;54.00
4910;DHT22;2470;49.868;8.660;2022-08-18T15:52:59;30.00;54.80
4910;DHT22;2470;49.868;8.660;2022-08-18T15:55:27;30.00;55.10
4910;DHT22;2470;49.868;8.660;2022-08-18T15:57:54;29.90;55.20
4910;DHT22;2470;49.868;8.660;2022-08-18T16:00:21;29.70;56.30
4910;DHT22;2470;49.868;8.660;2022-08-18T16:02:53;29.50;56.30
4910;DHT22;2470;49.868;8.660;2022-08-18T16:05:22;29.40;56.30
4910;DHT22;2470;49.868;8.660;2022-08-18T16:07:49;29.30;55.60
4910;DHT22;2470;49.868;8.660;2022-08-18T16:10:17;29.30;55.70
4910;DHT22;2470;49.868;8.660;2022-08-18T16:12:43;29.20;55.00
4910;DHT22;2470;49.868;8.660;2022-08-18T16:15:09;29.20;55.20
4910;DHT22;2470;49.868;8.660;2022-08-18T16:17:35;29.20;55.90
4910;DHT22;2470;49.868;8.660;2022-08-18T16:20:00;29.20;56.20
4910;DHT22;2470;49.868;8.660;2022-08-18T16:22:29;29.20;55.90
4910;DHT22;2470;49.868;8.660;2022-08-18T16:24:56;29.10;56.20
4910;DHT22;2470;49.868;8.660;2022-08-18T16:27:22;29.10;56.40
4910;DHT22;2470;49.868;8.660;2022-08-18T16:29:47;29.00;56.30
4910;DHT22;2470;49.868;8.660;2022-08-18T16:32:13;29.00;56.20
4910;DHT22;2470;49.868;8.660;2022-08-18T16:34:39;28.90;57.10
4910;DHT22;2470;49.868;8.660;2022-08-18T16:37:06;28.90;57.10
4910;DHT22;2470;49.868;8.660;2022-08-18T16:39:33;28.80;57.20
4910;DHT22;2470;49.868;8.660;2022-08-18T16:41:59;28.70;57.80
4910;DHT22;2470;49.868;8.660;2022-08-18T16:44:25;28.60;58.10
4910;DHT22;2470;49.868;8.660;2022-08-18T16:46:54;28.60;57.90
4910;DHT22;2470;49.868;8.660;2022-08-18T16:49:19;28.50;58.00
4910;DHT22;2470;49.868;8.660;2022-08-18T16:51:45;28.40;58.80
4910;DHT22;2470;49.868;8.660;2022-08-18T16:54:11;28.30;58.90
4910;DHT22;2470;49.868;8.660;2022-08-18T16:56:38;28.10;59.10
4910;DHT22;2470;49.868;8.660;2022-08-18T16:59:05;28.00;59.40
4910;DHT22;2470;49.868;8.660;2022-08-18T17:02:08;27.90;60.10
4910;DHT22;2470;49.868;8.660;2022-08-18T17:04:53;27.70;60.60
4910;DHT22;2470;49.868;8.660;2022-08-18T17:07:18;27.60;61.20
4910;DHT22;2470;49.868;8.660;2022-08-18T17:09:44;27.60;61.20
4910;DHT22;2470;49.868;8.660;2022-08-18T17:12:10;27.40;61.50
4910;DHT22;2470;49.868;8.660;2022-08-18T17:14:36;27.40;62.50
4910;DHT22;2470;49.868;8.660;2022-08-18T17:17:03;27.30;62.50
4910;DHT22;2470;49.868;8.660;2022-08-18T17:19:33;27.20;63.10
4910;DHT22;2470;49.868;8.660;2022-08-18T17:22:00;27.10;63.00
4910;DHT22;2470;49.868;8.660;2022-08-18T17:24:26;27.00;63.20
4910;DHT22;2470;49.868;8.660;2022-08-18T17:27:10;27.00;63.10
4910;DHT22;2470;49.868;8.660;2022-08-18T17:29:57;26.90;63.50
4910;DHT22;2470;49.868;8.660;2022-08-18T17:32:39;26.90;64.30
4910;DHT22;2470;49.868;8.660;2022-08-18T17:35:10;26.80;64.30
4910;DHT22;2470;49.868;8.660;2022-08-18T17:37:43;26.70;65.10
4910;DHT22;2470;49.868;8.660;2022-08-18T17:40:17;26.60;65.80
4910;DHT22;2470;49.868;8.660;2022-08-18T17:42:45;26.60;66.30
4910;DHT22;2470;49.868;8.660;2022-08-18T17:45:14;26.60;66.60
4910;DHT22;2470;49.868;8.660;2022-08-18T17:48:01;26.50;67.00
4910;DHT22;2470;49.868;8.660;2022-08-18T17:50:39;26.50;67.60
4910;DHT22;2470;49.868;8.660;2022-08-18T17:53:24;26.50;68.00
4910;DHT22;2470;49.868;8.660;2022-08-18T17:56:34;26.40;68.50
4910;DHT22;2470;49.868;8.660;2022-08-18T18:01:36;26.40;69.30
4910;DHT22;2470;49.868;8.660;2022-08-18T18:04:02;26.30;70.30
4910;DHT22;2470;49.868;8.660;2022-08-18T18:09:09;26.20;71.40
4910;DHT22;2470;49.868;8.660;2022-08-18T18:11:40;26.20;72.60
4910;DHT22;2470;49.868;8.660;2022-08-18T18:14:26;26.10;72.90
4910;DHT22;2470;49.868;8.660;2022-08-18T18:17:14;26.10;73.60
4910;DHT22;2470;49.868;8.660;2022-08-18T18:19:47;26.10;74.90
4910;DHT22;2470;49.868;8.660;2022-08-18T18:22:26;26.10;75.30
4910;DHT22;2470;49.868;8.660;2022-08-18T18:25:00;26.00;75.90
4910;DHT22;2470;49.868;8.660;2022-08-18T18:30:23;26.00;77.20
4910;DHT22;2470;49.868;8.660;2022-08-18T18:33:03;25.90;78.20
4910;DHT22;2470;49.868;8.660;2022-08-18T18:35:32;25.90;79.00
4910;DHT22;2470;49.868;8.660;2022-08-18T18:38:31;25.80;79.60
4910;DHT22;2470;49.868;8.660;2022-08-18T18:43:40;25.70;81.10
4910;DHT22;2470;49.868;8.660;2022-08-18T18:49:22;25.60;82.60
4910;DHT22;2470;49.868;8.660;2022-08-18T18:56:48;25.50;85.70
4910;DHT22;2470;49.868;8.660;2022-08-18T18:59:50;25.50;86.70
4910;DHT22;2470;49.868;8.660;2022-08-18T19:05:37;25.40;88.60
4910;DHT22;2470;49.868;8.660;2022-08-18T19:10:58;25.40;90.10
4910;DHT22;2470;49.868;8.660;2022-08-18T19:13:30;25.40;89.40
4910;DHT22;2470;49.868;8.660;2022-08-18T19:16:02;25.30;88.90
4910;DHT22;2470;49.868;8.660;2022-08-18T19:18:38;25.30;88.70
4910;DHT22;2470;49.868;8.660;2022-08-18T19:21:10;25.30;89.40
4910;DHT22;2470;49.868;8.660;2022-08-18T19:23:47;25.30;89.60
4910;DHT22;2470;49.868;8.660;2022-08-18T19:26:25;25.30;90.20
4910;DHT22;2470;49.868;8.660;2022-08-18T19:29:19;25.30;90.50